createdAt,value
2017-10-15T00:01:58.314Z,13.40
2017-10-15T00:04:24.726Z,13.50
2017-10-15T00:06:51.181Z,13.50
2017-10-15T00:09:17.605Z,13.40
2017-10-15T00:11:44.011Z,13.40
2017-10-15T00:14:10.472Z,13.50
2017-10-15T00:16:36.876Z,13.40
2017-10-15T00:19:03.320Z,13.40
2017-10-15T00:21:29.704Z,13.40
2017-10-15T00:23:56.136Z,13.40
2017-10-15T00:26:22.596Z,13.40
2017-10-15T00:28:49.751Z,13.40
2017-10-15T00:31:16.876Z,13.30
2017-10-15T00:33:43.323Z,13.30
2017-10-15T00:36:10.467Z,13.20
2017-10-15T00:38:37.661Z,13.20
2017-10-15T00:41:04.092Z,13.20
2017-10-15T00:43:30.531Z,13.20
2017-10-15T00:45:56.968Z,13.20
2017-10-15T00:48:23.372Z,13.20
2017-10-15T00:50:49.816Z,13.20
2017-10-15T00:53:16.252Z,13.30
2017-10-15T00:55:42.740Z,13.30
2017-10-15T00:58:09.179Z,13.30
2017-10-15T01:00:35.628Z,13.30
2017-10-15T01:03:02.824Z,13.30
2017-10-15T01:05:29.288Z,13.30
2017-10-15T01:07:55.779Z,13.30
2017-10-15T01:10:22.251Z,13.30
2017-10-15T01:12:48.669Z,13.30
2017-10-15T01:15:15.845Z,13.20
2017-10-15T01:17:42.285Z,13.20
2017-10-15T01:20:09.477Z,13.30
2017-10-15T01:22:35.951Z,13.30
2017-10-15T01:25:02.419Z,13.30
2017-10-15T01:27:29.575Z,13.30
2017-10-15T01:29:57.060Z,13.20
2017-10-15T01:32:23.571Z,13.20
2017-10-15T01:34:50.819Z,13.20
2017-10-15T01:37:17.996Z,13.20
2017-10-15T01:39:44.445Z,13.20
2017-10-15T01:42:10.917Z,13.20
2017-10-15T01:44:37.408Z,13.30
2017-10-15T01:47:03.920Z,13.30
2017-10-15T01:49:30.363Z,13.20
2017-10-15T01:51:56.880Z,13.20
2017-10-15T01:54:24.061Z,13.20
2017-10-15T01:56:50.544Z,13.20
2017-10-15T01:59:17.713Z,13.20
2017-10-15T02:01:44.113Z,13.20
2017-10-15T02:04:10.581Z,13.20
2017-10-15T02:06:37.763Z,13.10
2017-10-15T02:09:04.236Z,13.00
2017-10-15T02:11:30.636Z,13.00
2017-10-15T02:13:57.088Z,13.00
2017-10-15T02:16:23.557Z,13.00
2017-10-15T02:18:50.020Z,12.90
2017-10-15T02:21:16.502Z,12.90
2017-10-15T02:23:42.936Z,13.00
2017-10-15T02:26:09.390Z,13.00
2017-10-15T02:28:36.533Z,13.00
2017-10-15T02:31:02.940Z,13.00
2017-10-15T02:33:29.404Z,13.00
2017-10-15T02:35:56.620Z,12.90
2017-10-15T02:38:23.050Z,13.00
2017-10-15T02:40:49.523Z,12.90
2017-10-15T02:43:16.760Z,12.90
2017-10-15T02:45:43.948Z,12.90
2017-10-15T02:48:10.421Z,12.90
2017-10-15T02:50:36.851Z,12.90
2017-10-15T02:53:03.292Z,12.90
2017-10-15T02:55:29.711Z,12.90
2017-10-15T02:57:56.128Z,12.80
2017-10-15T03:00:22.604Z,12.80
2017-10-15T03:02:49.029Z,12.80
2017-10-15T03:05:15.457Z,12.80
2017-10-15T03:07:41.896Z,12.80
2017-10-15T03:10:08.340Z,12.80
2017-10-15T03:12:34.752Z,12.70
2017-10-15T03:15:01.167Z,12.70
2017-10-15T03:17:27.600Z,12.70
2017-10-15T03:19:54.089Z,12.70
2017-10-15T03:22:21.304Z,12.60
2017-10-15T03:24:47.719Z,12.50
2017-10-15T03:27:14.116Z,12.60
2017-10-15T03:29:40.550Z,12.60
2017-10-15T03:32:06.979Z,12.60
2017-10-15T03:34:33.425Z,12.60
2017-10-15T03:36:59.872Z,12.50
2017-10-15T03:39:26.344Z,12.50
2017-10-15T03:41:52.804Z,12.40
2017-10-15T03:44:20.000Z,12.40
2017-10-15T03:46:46.384Z,12.30
2017-10-15T03:49:13.553Z,12.40
2017-10-15T03:51:39.964Z,12.40
2017-10-15T03:54:07.116Z,12.40
2017-10-15T03:56:34.293Z,12.40
2017-10-15T03:59:00.693Z,12.40
2017-10-15T04:01:27.131Z,12.50
2017-10-15T04:03:54.319Z,12.40
2017-10-15T04:06:20.761Z,12.40
2017-10-15T04:08:47.187Z,12.40
2017-10-15T04:11:13.567Z,12.40
2017-10-15T04:13:40.002Z,12.50
2017-10-15T04:16:06.454Z,12.40
2017-10-15T04:18:33.659Z,12.50
2017-10-15T04:21:00.084Z,12.50
2017-10-15T04:23:26.561Z,12.40
2017-10-15T04:25:53.742Z,12.40
2017-10-15T04:28:20.177Z,12.40
2017-10-15T04:30:46.592Z,12.30
2017-10-15T04:33:13.011Z,12.30
2017-10-15T04:35:40.179Z,12.30
2017-10-15T04:38:07.320Z,12.30
2017-10-15T04:40:34.488Z,12.20
2017-10-15T04:43:00.897Z,12.20
2017-10-15T04:45:28.060Z,12.30
2017-10-15T04:47:54.496Z,12.20
2017-10-15T04:50:20.915Z,12.20
2017-10-15T04:52:48.100Z,12.10
2017-10-15T04:55:14.548Z,12.10
2017-10-15T04:57:41.692Z,12.30
2017-10-15T05:00:08.333Z,12.20
2017-10-15T05:02:34.880Z,12.20
2017-10-15T05:05:01.348Z,12.20
2017-10-15T05:07:27.776Z,12.30
2017-10-15T05:09:54.200Z,12.30
2017-10-15T05:12:20.603Z,12.20
2017-10-15T05:14:47.043Z,12.20
2017-10-15T05:17:13.476Z,12.20
2017-10-15T05:19:39.894Z,12.10
2017-10-15T05:22:06.320Z,12.10
2017-10-15T05:24:33.520Z,12.20
2017-10-15T05:26:59.955Z,12.20
2017-10-15T05:29:26.345Z,12.20
2017-10-15T05:31:52.829Z,12.20
2017-10-15T05:34:19.242Z,12.20
2017-10-15T05:36:45.720Z,12.10
2017-10-15T05:39:12.188Z,12.00
2017-10-15T05:41:38.799Z,12.00
2017-10-15T05:44:05.448Z,12.20
2017-10-15T05:46:32.620Z,12.10
2017-10-15T05:48:59.080Z,12.00
2017-10-15T05:51:25.744Z,12.10
2017-10-15T05:53:52.337Z,12.20
2017-10-15T05:56:19.650Z,12.10
2017-10-15T05:58:46.072Z,12.10
2017-10-15T06:01:12.512Z,12.10
2017-10-15T06:03:39.041Z,12.20
2017-10-15T06:06:05.889Z,12.20
2017-10-15T06:08:32.603Z,12.30
2017-10-15T06:10:59.849Z,12.40
2017-10-15T06:13:27.109Z,12.40
2017-10-15T06:15:53.677Z,12.30
2017-10-15T06:18:20.203Z,12.40
2017-10-15T06:20:46.708Z,12.50
2017-10-15T06:23:13.952Z,12.50
2017-10-15T06:25:40.539Z,12.50
2017-10-15T06:28:07.115Z,12.50
2017-10-15T06:30:34.357Z,12.60
2017-10-15T06:33:00.775Z,12.50
2017-10-15T06:35:27.278Z,12.60
2017-10-15T06:37:54.444Z,12.70
2017-10-15T06:40:21.549Z,12.70
2017-10-15T06:42:48.913Z,12.80
2017-10-15T06:45:16.180Z,13.00
2017-10-15T06:47:42.621Z,13.00
2017-10-15T06:50:09.097Z,12.90
2017-10-15T06:52:35.552Z,13.00
2017-10-15T06:55:02.119Z,13.20
2017-10-15T06:57:28.945Z,13.10
2017-10-15T06:59:55.702Z,13.20
2017-10-15T07:02:26.313Z,13.20
2017-10-15T07:04:52.982Z,13.10
2017-10-15T07:07:19.965Z,13.20
2017-10-15T07:09:46.585Z,13.30
2017-10-15T07:12:13.594Z,13.40
2017-10-15T07:14:40.212Z,13.40
2017-10-15T07:17:07.645Z,13.10
2017-10-15T07:19:34.934Z,13.00
2017-10-15T07:22:01.521Z,13.10
2017-10-15T07:24:28.430Z,13.20
2017-10-15T07:26:55.216Z,13.20
2017-10-15T07:29:22.483Z,13.10
2017-10-15T07:31:49.346Z,13.00
2017-10-15T07:34:16.159Z,13.20
2017-10-15T07:36:43.025Z,13.50
2017-10-15T07:39:09.821Z,13.60
2017-10-15T07:41:36.429Z,13.80
2017-10-15T07:44:03.030Z,13.90
2017-10-15T07:46:29.595Z,13.80
2017-10-15T07:48:56.500Z,14.00
2017-10-15T07:51:22.996Z,14.00
2017-10-15T07:53:49.624Z,14.00
2017-10-15T07:56:16.182Z,14.20
2017-10-15T07:58:42.732Z,14.30
2017-10-15T08:01:09.357Z,14.40
2017-10-15T08:03:36.593Z,14.60
2017-10-15T08:06:03.302Z,14.60
2017-10-15T08:08:29.868Z,14.60
2017-10-15T08:14:25.158Z,14.80
2017-10-15T08:19:50.412Z,14.90
2017-10-15T08:22:16.996Z,15.10
2017-10-15T08:24:44.018Z,15.20
2017-10-15T08:27:10.602Z,15.30
2017-10-15T08:29:37.844Z,15.30
2017-10-15T08:32:04.985Z,15.30
2017-10-15T08:34:31.639Z,15.40
2017-10-15T08:36:58.915Z,15.30
2017-10-15T08:39:25.408Z,15.30
2017-10-15T08:41:52.132Z,15.50
2017-10-15T08:44:19.490Z,15.70
2017-10-15T08:46:47.007Z,15.80
2017-10-15T08:49:13.850Z,15.70
2017-10-15T08:51:40.372Z,15.80
2017-10-15T08:54:06.883Z,15.90
2017-10-15T08:56:37.439Z,16.00
2017-10-15T08:59:04.157Z,16.00
2017-10-15T09:01:31.774Z,16.10
2017-10-15T09:03:59.125Z,16.10
2017-10-15T09:06:25.703Z,16.10
2017-10-15T09:08:52.140Z,16.20
2017-10-15T09:11:18.896Z,16.20
2017-10-15T09:13:46.710Z,16.30
2017-10-15T09:16:13.192Z,16.30
2017-10-15T09:18:40.433Z,16.50
2017-10-15T09:21:06.939Z,16.50
2017-10-15T09:23:33.466Z,16.60
2017-10-15T09:25:59.989Z,16.70
2017-10-15T09:28:26.489Z,16.70
2017-10-15T09:30:52.961Z,16.80
2017-10-15T09:33:19.546Z,16.90
2017-10-15T09:35:45.980Z,16.90
2017-10-15T09:38:12.454Z,17.00
2017-10-15T09:40:38.901Z,17.10
2017-10-15T09:43:05.425Z,17.20
2017-10-15T09:45:31.910Z,17.30
2017-10-15T09:47:58.402Z,17.40
2017-10-15T09:50:24.857Z,17.70
2017-10-15T09:52:51.473Z,18.30
2017-10-15T09:55:17.998Z,18.90
2017-10-15T09:57:44.521Z,19.50
2017-10-15T10:00:10.967Z,20.10
2017-10-15T10:02:37.498Z,20.50
2017-10-15T10:05:03.937Z,20.70
2017-10-15T10:07:30.491Z,21.20
2017-10-15T10:09:57.026Z,21.30
2017-10-15T10:12:23.555Z,21.30
2017-10-15T10:14:50.415Z,21.40
2017-10-15T10:17:17.640Z,21.10
2017-10-15T10:19:44.162Z,21.10
2017-10-15T10:22:10.631Z,21.10
2017-10-15T10:24:37.145Z,21.20
2017-10-15T10:27:03.572Z,21.50
2017-10-15T10:29:30.078Z,21.60
2017-10-15T10:31:57.264Z,21.40
2017-10-15T10:34:23.799Z,21.40
2017-10-15T10:36:50.540Z,21.50
2017-10-15T10:39:17.312Z,21.70
2017-10-15T10:41:43.881Z,22.10
2017-10-15T10:47:21.623Z,22.40
2017-10-15T10:52:22.576Z,22.60
2017-10-15T10:54:52.771Z,22.70
2017-10-15T10:57:19.282Z,22.80
2017-10-15T11:02:36.261Z,23.00
2017-10-15T11:05:03.580Z,23.50
2017-10-15T11:07:31.895Z,23.60
2017-10-15T11:09:59.711Z,23.50
2017-10-15T11:12:26.171Z,24.00
2017-10-15T11:15:15.307Z,24.00
2017-10-15T11:17:58.853Z,24.30
2017-10-15T11:20:28.531Z,24.50
2017-10-15T11:22:56.053Z,24.70
2017-10-15T11:25:22.673Z,24.60
2017-10-15T11:27:50.643Z,24.80
2017-10-15T11:30:17.249Z,24.90
2017-10-15T11:32:46.609Z,24.90
2017-10-15T11:35:13.138Z,24.80
2017-10-15T11:40:12.696Z,25.10
2017-10-15T11:42:40.853Z,25.50
2017-10-15T11:45:08.591Z,25.70
2017-10-15T11:47:36.131Z,25.50
2017-10-15T11:50:03.196Z,25.30
2017-10-15T11:52:31.196Z,25.70
2017-10-15T11:55:00.680Z,25.60
2017-10-15T11:57:27.374Z,25.70
2017-10-15T11:59:54.565Z,25.70
2017-10-15T12:02:24.994Z,25.50
2017-10-15T12:04:52.576Z,25.50
2017-10-15T12:07:19.137Z,25.40
2017-10-15T12:09:45.936Z,25.50
2017-10-15T12:12:12.359Z,25.60
2017-10-15T12:14:39.543Z,25.70
2017-10-15T12:17:05.963Z,25.60
2017-10-15T12:19:32.480Z,25.80
2017-10-15T12:22:01.746Z,25.80
2017-10-15T12:24:28.387Z,26.20
2017-10-15T12:26:54.788Z,26.00
2017-10-15T12:29:21.980Z,25.90
2017-10-15T12:31:48.368Z,25.90
2017-10-15T12:34:14.844Z,26.00
2017-10-15T12:36:41.291Z,26.00
2017-10-15T12:39:07.700Z,25.90
2017-10-15T12:41:34.100Z,25.80
2017-10-15T12:44:00.541Z,25.70
2017-10-15T12:46:26.982Z,25.90
2017-10-15T12:48:53.376Z,26.20
2017-10-15T12:51:19.789Z,26.00
2017-10-15T12:53:46.378Z,26.00
2017-10-15T12:56:12.806Z,26.00
2017-10-15T12:58:39.473Z,25.70
2017-10-15T13:01:06.647Z,25.80
2017-10-15T13:03:33.807Z,25.90
2017-10-15T13:06:01.184Z,26.10
2017-10-15T13:08:27.844Z,26.00
2017-10-15T13:10:55.102Z,25.80
2017-10-15T13:13:21.515Z,25.80
2017-10-15T13:15:48.304Z,25.50
2017-10-15T13:18:14.780Z,25.20
2017-10-15T13:20:41.213Z,25.50
2017-10-15T13:23:07.762Z,25.40
2017-10-15T13:25:34.238Z,25.70
2017-10-15T13:28:00.669Z,26.10
2017-10-15T13:30:27.843Z,26.00
2017-10-15T13:32:54.977Z,25.70
2017-10-15T13:35:21.376Z,25.70
2017-10-15T13:37:47.800Z,25.70
2017-10-15T13:40:14.541Z,25.70
2017-10-15T13:42:41.012Z,25.50
2017-10-15T13:45:07.431Z,25.30
2017-10-15T13:47:33.904Z,25.30
2017-10-15T13:50:00.544Z,25.10
2017-10-15T13:52:27.097Z,25.00
2017-10-15T13:54:53.926Z,24.70
2017-10-15T13:57:21.934Z,24.30
2017-10-15T13:59:49.214Z,24.30
2017-10-15T14:02:16.616Z,24.10
2017-10-15T14:04:43.471Z,24.10
2017-10-15T14:07:10.085Z,23.90
2017-10-15T14:09:36.613Z,23.70
2017-10-15T14:12:05.021Z,23.60
2017-10-15T14:14:31.613Z,23.60
2017-10-15T14:16:58.164Z,23.30
2017-10-15T14:19:24.605Z,23.20
2017-10-15T14:21:51.129Z,23.10
2017-10-15T14:24:18.309Z,23.00
2017-10-15T14:26:44.800Z,23.00
2017-10-15T14:29:11.237Z,23.00
2017-10-15T14:31:37.816Z,23.00
2017-10-15T14:34:04.412Z,22.90
2017-10-15T14:36:31.772Z,22.80
2017-10-15T14:38:58.223Z,22.80
2017-10-15T14:41:25.600Z,22.80
2017-10-15T14:43:52.072Z,22.80
2017-10-15T14:46:18.497Z,22.70
2017-10-15T14:48:44.960Z,22.70
2017-10-15T14:51:12.129Z,22.60
2017-10-15T14:53:38.794Z,22.60
2017-10-15T14:56:06.017Z,22.50
2017-10-15T14:58:33.128Z,22.50
2017-10-15T15:00:59.844Z,22.40
2017-10-15T15:03:27.161Z,22.50
2017-10-15T15:05:53.690Z,22.40
2017-10-15T15:08:20.340Z,22.40
2017-10-15T15:10:46.743Z,22.40
2017-10-15T15:13:13.333Z,22.30
2017-10-15T15:15:39.796Z,22.20
2017-10-15T15:18:06.403Z,22.00
2017-10-15T15:20:33.733Z,22.00
2017-10-15T15:23:01.549Z,21.90
2017-10-15T15:25:28.062Z,21.90
2017-10-15T15:27:54.557Z,21.80
2017-10-15T15:30:21.024Z,21.70
2017-10-15T15:32:47.416Z,21.60
2017-10-15T15:35:14.596Z,21.40
2017-10-15T15:37:43.783Z,21.40
2017-10-15T15:40:10.987Z,21.10
2017-10-15T15:42:37.386Z,21.10
2017-10-15T15:45:03.868Z,20.90
2017-10-15T15:47:30.628Z,20.80
2017-10-15T15:49:57.084Z,20.70
2017-10-15T15:52:23.555Z,20.40
2017-10-15T15:54:49.965Z,20.30
2017-10-15T15:57:16.421Z,20.20
2017-10-15T15:59:42.805Z,20.00
2017-10-15T16:02:09.200Z,19.80
2017-10-15T16:04:35.673Z,19.70
2017-10-15T16:07:02.145Z,19.60
2017-10-15T16:09:28.567Z,19.40
2017-10-15T16:11:54.996Z,19.30
2017-10-15T16:14:21.499Z,19.20
2017-10-15T16:16:47.920Z,19.10
2017-10-15T16:19:15.072Z,18.80
2017-10-15T16:21:41.499Z,18.80
2017-10-15T16:24:08.690Z,18.70
2017-10-15T16:26:35.381Z,18.60
2017-10-15T16:29:01.895Z,18.50
2017-10-15T16:31:28.376Z,18.40
2017-10-15T16:33:55.040Z,18.30
2017-10-15T16:36:21.468Z,18.30
2017-10-15T16:38:47.918Z,18.20
2017-10-15T16:41:14.475Z,18.10
2017-10-15T16:43:40.997Z,18.00
2017-10-15T16:46:07.417Z,18.00
2017-10-15T16:48:33.884Z,17.90
2017-10-15T16:51:00.336Z,17.90
2017-10-15T16:53:27.522Z,17.70
2017-10-15T16:55:53.945Z,17.70
2017-10-15T16:58:20.372Z,17.60
2017-10-15T17:00:46.820Z,17.50
2017-10-15T17:03:13.544Z,17.50
2017-10-15T17:05:40.393Z,17.40
2017-10-15T17:08:07.080Z,17.30
2017-10-15T17:10:33.720Z,17.20
2017-10-15T17:13:00.328Z,17.20
2017-10-15T17:15:26.847Z,17.10
2017-10-15T17:17:53.319Z,17.10
2017-10-15T17:20:19.748Z,17.00
2017-10-15T17:22:46.186Z,17.00
2017-10-15T17:25:12.588Z,16.90
2017-10-15T17:27:39.020Z,16.90
2017-10-15T17:30:05.824Z,16.80
2017-10-15T17:32:32.557Z,16.70
2017-10-15T17:34:59.041Z,16.70
2017-10-15T17:37:25.501Z,16.60
2017-10-15T17:39:51.939Z,16.50
2017-10-15T17:42:18.452Z,16.60
2017-10-15T17:44:45.221Z,16.50
2017-10-15T17:47:11.881Z,16.40
2017-10-15T17:49:57.964Z,16.30
2017-10-15T17:52:25.148Z,16.20
2017-10-15T17:54:51.824Z,16.20
2017-10-15T17:57:19.201Z,16.20
2017-10-15T17:59:46.753Z,16.20
2017-10-15T18:02:16.223Z,16.10
2017-10-15T18:04:42.876Z,16.10
2017-10-15T18:07:09.548Z,16.10
2017-10-15T18:09:36.012Z,16.00
2017-10-15T18:12:02.689Z,15.90
2017-10-15T18:14:29.181Z,15.90
2017-10-15T18:16:56.027Z,15.90
2017-10-15T18:19:22.439Z,15.90
2017-10-15T18:21:50.006Z,16.00
2017-10-15T18:24:16.657Z,16.00
2017-10-15T18:26:43.148Z,16.10
2017-10-15T18:29:10.333Z,16.00
2017-10-15T18:31:37.691Z,16.00
2017-10-15T18:34:04.172Z,16.00
2017-10-15T18:36:31.338Z,15.90
2017-10-15T18:38:58.073Z,15.90
2017-10-15T18:41:25.268Z,15.80
2017-10-15T18:43:51.725Z,15.70
2017-10-15T18:46:18.195Z,15.80
2017-10-15T18:48:44.618Z,15.70
2017-10-15T18:51:11.069Z,15.60
2017-10-15T18:53:37.539Z,15.60
2017-10-15T18:56:03.937Z,15.70
2017-10-15T18:58:30.576Z,15.60
2017-10-15T19:00:57.045Z,15.50
2017-10-15T19:03:23.527Z,15.50
2017-10-15T19:05:50.255Z,15.60
2017-10-15T19:08:16.875Z,15.60
2017-10-15T19:10:43.557Z,15.50
2017-10-15T19:13:10.844Z,15.40
2017-10-15T19:15:37.472Z,15.40
2017-10-15T19:18:04.089Z,15.40
2017-10-15T19:20:31.504Z,15.40
2017-10-15T19:22:58.177Z,15.40
2017-10-15T19:25:24.929Z,15.30
2017-10-15T19:27:52.109Z,15.20
2017-10-15T19:30:18.569Z,15.20
2017-10-15T19:32:45.136Z,15.30
2017-10-15T19:35:12.315Z,15.30
2017-10-15T19:37:39.760Z,15.20
2017-10-15T19:40:06.277Z,15.20
2017-10-15T19:42:33.036Z,15.20
2017-10-15T19:45:00.313Z,15.10
2017-10-15T19:47:26.724Z,15.10
2017-10-15T19:49:53.871Z,15.10
2017-10-15T19:52:20.340Z,15.10
2017-10-15T19:54:46.776Z,15.10
2017-10-15T19:57:13.656Z,15.00
2017-10-15T19:59:40.854Z,15.00
2017-10-15T20:02:07.308Z,15.00
2017-10-15T20:04:33.712Z,15.10
2017-10-15T20:07:01.429Z,15.00
2017-10-15T20:09:28.581Z,15.00
2017-10-15T20:11:55.352Z,15.00
2017-10-15T20:14:22.085Z,15.00
2017-10-15T20:16:48.774Z,14.90
2017-10-15T20:19:15.461Z,14.90
2017-10-15T20:21:42.029Z,14.90
2017-10-15T20:24:08.557Z,14.90
2017-10-15T20:26:35.297Z,14.80
2017-10-15T20:29:01.800Z,14.90
2017-10-15T20:31:28.214Z,14.90
2017-10-15T20:33:54.683Z,14.90
2017-10-15T20:36:21.150Z,14.90
2017-10-15T20:38:47.538Z,14.80
2017-10-15T20:41:14.029Z,14.80
2017-10-15T20:43:40.444Z,14.80
2017-10-15T20:46:06.893Z,14.80
2017-10-15T20:48:33.336Z,14.80
2017-10-15T20:50:59.729Z,14.80
2017-10-15T20:53:26.969Z,14.70
2017-10-15T20:55:53.499Z,14.70
2017-10-15T20:58:19.905Z,14.70
2017-10-15T21:00:46.375Z,14.70
2017-10-15T21:03:12.845Z,14.70
2017-10-15T21:05:39.328Z,14.60
2017-10-15T21:08:06.524Z,14.60
2017-10-15T21:10:32.928Z,14.50
2017-10-15T21:13:00.124Z,14.50
2017-10-15T21:15:26.527Z,14.50
2017-10-15T21:17:52.960Z,14.50
2017-10-15T21:20:19.367Z,14.50
2017-10-15T21:22:45.762Z,14.50
2017-10-15T21:25:12.242Z,14.40
2017-10-15T21:27:39.371Z,14.40
2017-10-15T21:30:05.784Z,14.40
2017-10-15T21:32:32.985Z,14.50
2017-10-15T21:34:59.431Z,14.40
2017-10-15T21:37:25.854Z,14.30
2017-10-15T21:39:53.021Z,14.30
2017-10-15T21:42:19.476Z,14.30
2017-10-15T21:44:45.885Z,14.30
2017-10-15T21:47:12.280Z,14.20
2017-10-15T21:49:38.696Z,14.30
2017-10-15T21:52:05.124Z,14.10
2017-10-15T21:54:31.531Z,14.20
2017-10-15T21:56:57.959Z,14.20
2017-10-15T21:59:24.389Z,14.20
2017-10-15T22:01:50.809Z,14.20
2017-10-15T22:04:17.244Z,14.30
2017-10-15T22:06:43.981Z,14.20
2017-10-15T22:09:10.955Z,14.20
2017-10-15T22:11:37.780Z,14.10
2017-10-15T22:14:04.216Z,14.10
2017-10-15T22:16:30.676Z,14.10
2017-10-15T22:19:03.213Z,14.10
2017-10-15T22:21:35.813Z,14.00
2017-10-15T22:24:03.078Z,14.00
2017-10-15T22:26:29.529Z,14.00
2017-10-15T22:28:56.102Z,14.00
2017-10-15T22:31:22.553Z,14.00
2017-10-15T22:33:49.281Z,14.00
2017-10-15T22:36:15.943Z,14.00
2017-10-15T22:38:42.645Z,14.00
2017-10-15T22:41:09.090Z,14.00
2017-10-15T22:43:35.513Z,13.90
2017-10-15T22:46:02.965Z,14.00
2017-10-15T22:48:29.504Z,14.00
2017-10-15T22:50:55.983Z,14.00
2017-10-15T22:53:22.384Z,13.90
2017-10-15T22:55:48.820Z,13.90
2017-10-15T22:58:15.256Z,13.90
2017-10-15T23:00:41.692Z,13.90
2017-10-15T23:03:08.099Z,13.90
2017-10-15T23:05:35.256Z,13.90
2017-10-15T23:08:02.431Z,13.80
2017-10-15T23:10:28.860Z,13.70
2017-10-15T23:12:55.275Z,13.70
2017-10-15T23:15:22.427Z,13.60
2017-10-15T23:17:49.589Z,13.70
2017-10-15T23:20:16.001Z,13.60
2017-10-15T23:22:43.135Z,13.60
2017-10-15T23:25:09.521Z,13.60
2017-10-15T23:27:35.945Z,13.60
2017-10-15T23:30:02.388Z,13.60
2017-10-15T23:32:28.796Z,13.50
2017-10-15T23:34:55.208Z,13.40
2017-10-15T23:37:22.352Z,13.40
2017-10-15T23:39:48.760Z,13.40
2017-10-15T23:42:15.183Z,13.50
2017-10-15T23:44:41.572Z,13.40
2017-10-15T23:47:08.732Z,13.40
2017-10-15T23:49:35.144Z,13.40
2017-10-15T23:52:02.303Z,13.50
2017-10-15T23:54:28.797Z,13.50
2017-10-15T23:56:55.253Z,13.50
2017-10-15T23:59:22.413Z,13.50
